createdAt,value
2023-04-16T00:00:35.207Z,60.90
2023-04-16T00:04:17.250Z,61.10
2023-04-16T00:07:59.045Z,60.80
2023-04-16T00:11:40.750Z,61.00
2023-04-16T00:15:22.670Z,61.00
2023-04-16T00:19:04.690Z,61.10
2023-04-16T00:22:46.500Z,61.00
2023-04-16T00:26:28.228Z,61.10
2023-04-16T00:30:10.156Z,61.40
2023-04-16T00:33:51.890Z,61.50
2023-04-16T00:37:33.566Z,61.50
2023-04-16T00:41:15.288Z,61.60
2023-04-16T00:44:56.988Z,61.70
2023-04-16T00:48:40.860Z,61.80
2023-04-16T00:52:22.619Z,61.70
2023-04-16T00:56:06.299Z,61.80
2023-04-16T00:59:48.072Z,61.80
2023-04-16T01:03:39.630Z,62.00
2023-04-16T01:07:21.501Z,62.40
2023-04-16T01:11:03.709Z,62.10
2023-04-16T01:14:45.659Z,62.00
2023-04-16T01:18:27.443Z,62.10
2023-04-16T01:22:09.238Z,62.10
2023-04-16T01:25:51.255Z,62.10
2023-04-16T01:29:33.019Z,62.20
2023-04-16T01:33:15.371Z,62.10
2023-04-16T01:36:57.138Z,62.20
2023-04-16T01:40:39.085Z,62.30
2023-04-16T01:44:21.889Z,62.50
2023-04-16T01:48:04.430Z,62.60
2023-04-16T01:51:46.886Z,62.70
2023-04-16T01:55:28.898Z,62.70
2023-04-16T01:59:11.124Z,62.70
2023-04-16T02:02:53.627Z,62.70
2023-04-16T02:06:35.951Z,62.70
2023-04-16T02:10:17.684Z,62.60
2023-04-16T02:13:59.388Z,62.70
2023-04-16T02:17:41.344Z,62.70
2023-04-16T02:21:23.814Z,62.70
2023-04-16T02:25:06.129Z,62.90
2023-04-16T02:28:48.659Z,63.00
2023-04-16T02:32:30.724Z,63.10
2023-04-16T02:36:12.888Z,63.20
2023-04-16T02:39:55.161Z,63.10
2023-04-16T02:43:37.761Z,62.90
2023-04-16T02:47:19.758Z,63.10
2023-04-16T02:51:02.192Z,63.30
2023-04-16T02:54:44.966Z,63.40
2023-04-16T02:58:30.735Z,63.50
2023-04-16T03:02:21.880Z,63.70
2023-04-16T03:06:04.247Z,63.60
2023-04-16T03:09:47.052Z,63.60
2023-04-16T03:13:34.540Z,63.70
2023-04-16T03:17:16.775Z,63.60
2023-04-16T03:20:59.171Z,63.60
2023-04-16T03:24:41.913Z,63.60
2023-04-16T03:28:24.381Z,63.70
2023-04-16T03:32:06.344Z,63.70
2023-04-16T03:35:56.062Z,63.60
2023-04-16T03:39:37.939Z,64.00
2023-04-16T03:43:19.675Z,63.70
2023-04-16T03:47:01.544Z,63.70
2023-04-16T03:50:49.956Z,63.70
2023-04-16T03:54:31.709Z,63.80
2023-04-16T03:58:13.494Z,63.70
2023-04-16T04:01:55.370Z,63.80
2023-04-16T04:05:41.917Z,63.80
2023-04-16T04:09:23.690Z,63.90
2023-04-16T04:13:06.565Z,63.80
2023-04-16T04:16:48.325Z,63.80
2023-04-16T04:20:30.131Z,63.80
2023-04-16T04:24:11.832Z,63.90
2023-04-16T04:27:53.586Z,64.00
2023-04-16T04:31:35.493Z,63.90
2023-04-16T04:35:17.325Z,64.00
2023-04-16T04:38:59.101Z,64.10
2023-04-16T04:42:41.016Z,64.30
2023-04-16T04:46:22.819Z,64.20
2023-04-16T04:50:04.913Z,64.30
2023-04-16T04:53:46.648Z,64.30
2023-04-16T04:57:28.344Z,64.40
2023-04-16T05:01:10.523Z,64.50
2023-04-16T05:04:52.286Z,64.60
2023-04-16T05:08:34.036Z,64.70
2023-04-16T05:12:15.840Z,64.80
2023-04-16T05:15:57.552Z,64.80
2023-04-16T05:19:39.477Z,64.80
2023-04-16T05:23:21.240Z,64.90
2023-04-16T05:27:02.998Z,65.10
2023-04-16T05:30:44.771Z,65.20
2023-04-16T05:34:26.465Z,65.40
2023-04-16T05:38:08.278Z,65.50
2023-04-16T05:41:49.997Z,65.60
2023-04-16T05:45:33.435Z,65.70
2023-04-16T05:49:15.528Z,65.80
2023-04-16T05:52:57.336Z,65.90
2023-04-16T05:56:39.050Z,65.90
2023-04-16T06:00:21.152Z,66.10
2023-04-16T06:04:03.167Z,66.20
2023-04-16T06:07:44.981Z,66.30
2023-04-16T06:11:27.566Z,66.50
2023-04-16T06:15:09.808Z,66.50
2023-04-16T06:18:51.548Z,66.50
2023-04-16T06:22:33.355Z,66.70
2023-04-16T06:26:15.046Z,66.80
2023-04-16T06:29:58.054Z,66.80
2023-04-16T06:33:39.835Z,66.80
2023-04-16T06:37:21.732Z,66.90
2023-04-16T06:41:04.160Z,66.80
2023-04-16T06:44:46.644Z,66.80
2023-04-16T06:48:28.485Z,66.80
2023-04-16T06:52:10.288Z,66.80
2023-04-16T06:55:52.104Z,66.90
2023-04-16T06:59:33.826Z,66.90
2023-04-16T07:03:15.712Z,66.90
2023-04-16T07:06:57.657Z,67.00
2023-04-16T07:10:39.451Z,66.90
2023-04-16T07:14:21.319Z,67.00
2023-04-16T07:18:03.114Z,67.00
2023-04-16T07:21:44.966Z,67.10
2023-04-16T07:25:26.928Z,67.10
2023-04-16T07:29:08.917Z,67.00
2023-04-16T07:32:51.642Z,67.10
2023-04-16T07:36:33.433Z,67.20
2023-04-16T07:40:15.346Z,67.30
2023-04-16T07:43:57.716Z,67.20
2023-04-16T07:47:40.137Z,67.30
2023-04-16T07:51:23.451Z,67.40
2023-04-16T07:55:05.638Z,67.30
2023-04-16T07:58:47.413Z,67.20
2023-04-16T08:02:29.482Z,67.20
2023-04-16T08:06:11.281Z,67.10
2023-04-16T08:09:53.283Z,67.00
2023-04-16T08:13:35.020Z,66.90
2023-04-16T08:17:16.920Z,66.70
2023-04-16T08:20:58.763Z,66.70
2023-04-16T08:24:40.517Z,66.60
2023-04-16T08:28:22.244Z,66.40
2023-04-16T08:32:04.133Z,66.30
2023-04-16T08:35:46.172Z,66.20
2023-04-16T08:39:27.949Z,66.00
2023-04-16T08:43:13.681Z,65.70
2023-04-16T08:46:58.277Z,65.70
2023-04-16T08:50:41.189Z,65.50
2023-04-16T08:54:38.990Z,65.60
2023-04-16T08:58:22.752Z,65.60
2023-04-16T09:02:06.329Z,65.50
2023-04-16T09:05:49.387Z,65.40
2023-04-16T09:09:33.409Z,65.20
2023-04-16T09:13:20.307Z,65.00
2023-04-16T09:17:03.366Z,65.00
2023-04-16T09:20:45.250Z,64.90
2023-04-16T09:24:28.557Z,64.80
2023-04-16T09:28:10.986Z,64.60
2023-04-16T09:32:12.365Z,64.40
2023-04-16T09:35:54.337Z,63.60
2023-04-16T09:39:36.340Z,63.90
2023-04-16T09:43:18.995Z,63.70
2023-04-16T09:47:06.772Z,63.50
2023-04-16T09:50:52.165Z,63.20
2023-04-16T09:54:33.913Z,63.00
2023-04-16T09:58:19.207Z,63.00
2023-04-16T10:02:15.637Z,62.90
2023-04-16T10:06:07.578Z,62.90
2023-04-16T10:09:50.163Z,62.80
2023-04-16T10:13:32.664Z,62.60
2023-04-16T10:17:16.022Z,62.60
2023-04-16T10:20:57.986Z,62.60
2023-04-16T10:24:41.870Z,62.60
2023-04-16T10:28:24.956Z,62.50
2023-04-16T10:32:07.320Z,62.50
2023-04-16T10:36:01.178Z,62.40
2023-04-16T10:39:49.741Z,62.50
2023-04-16T10:43:33.410Z,62.50
2023-04-16T10:47:15.240Z,62.40
2023-04-16T10:50:58.128Z,62.30
2023-04-16T10:54:41.113Z,62.30
2023-04-16T10:58:35.472Z,62.10
2023-04-16T11:02:18.692Z,62.00
2023-04-16T11:06:13.455Z,61.90
2023-04-16T11:10:04.454Z,61.50
2023-04-16T11:13:46.582Z,61.50
2023-04-16T11:17:33.815Z,61.80
2023-04-16T11:21:15.964Z,61.70
2023-04-16T11:24:57.862Z,61.70
2023-04-16T11:28:39.638Z,61.70
2023-04-16T11:32:22.688Z,61.60
2023-04-16T11:36:06.069Z,61.60
2023-04-16T11:39:49.720Z,61.50
2023-04-16T11:43:32.028Z,61.50
2023-04-16T11:47:13.847Z,61.40
2023-04-16T11:50:59.061Z,61.00
2023-04-16T11:54:40.855Z,61.30
2023-04-16T11:58:23.527Z,61.40
2023-04-16T12:02:05.493Z,61.50
2023-04-16T12:05:47.242Z,61.50
2023-04-16T12:09:28.936Z,61.50
2023-04-16T12:13:15.328Z,61.60
2023-04-16T12:16:58.238Z,61.70
2023-04-16T12:20:43.687Z,61.60
2023-04-16T12:24:27.383Z,61.40
2023-04-16T12:28:09.121Z,61.20
2023-04-16T12:31:52.393Z,61.20
2023-04-16T12:35:34.582Z,61.10
2023-04-16T12:39:16.613Z,61.00
2023-04-16T12:42:58.443Z,61.00
2023-04-16T12:46:44.503Z,61.00
2023-04-16T12:50:26.417Z,60.90
2023-04-16T12:54:08.261Z,60.90
2023-04-16T12:57:52.769Z,60.90
2023-04-16T13:01:37.080Z,60.90
2023-04-16T13:05:19.300Z,60.90
2023-04-16T13:09:01.579Z,60.80
2023-04-16T13:12:43.332Z,60.80
2023-04-16T13:16:25.174Z,60.80
2023-04-16T13:20:07.668Z,60.50
2023-04-16T13:23:49.485Z,60.30
2023-04-16T13:27:32.549Z,60.40
2023-04-16T13:31:15.839Z,60.30
2023-04-16T13:34:57.641Z,60.30
2023-04-16T13:38:39.547Z,60.20
2023-04-16T13:42:22.059Z,60.00
2023-04-16T13:46:03.823Z,60.00
2023-04-16T13:49:45.595Z,59.90
2023-04-16T13:53:27.389Z,60.10
2023-04-16T13:57:09.137Z,60.10
2023-04-16T14:00:51.078Z,60.20
2023-04-16T14:04:32.888Z,60.00
2023-04-16T14:08:16.373Z,60.10
2023-04-16T14:11:58.156Z,60.10
2023-04-16T14:15:39.907Z,60.20
2023-04-16T14:19:22.067Z,60.10
2023-04-16T14:23:04.036Z,60.10
2023-04-16T14:26:46.758Z,59.70
2023-04-16T14:30:28.456Z,59.60
2023-04-16T14:34:10.180Z,59.40
2023-04-16T14:37:52.139Z,59.20
2023-04-16T14:41:33.868Z,59.30
2023-04-16T14:45:15.954Z,59.40
2023-04-16T14:48:57.827Z,59.30
2023-04-16T14:52:39.697Z,59.30
2023-04-16T14:56:21.467Z,59.30
2023-04-16T15:00:07.632Z,59.30
2023-04-16T15:03:49.729Z,59.50
2023-04-16T15:07:31.812Z,59.50
2023-04-16T15:11:13.848Z,59.50
2023-04-16T15:14:55.543Z,59.50
2023-04-16T15:18:37.413Z,59.40
2023-04-16T15:22:19.200Z,59.30
2023-04-16T15:26:01.003Z,59.40
2023-04-16T15:29:43.613Z,59.40
2023-04-16T15:33:26.421Z,59.40
2023-04-16T15:37:08.367Z,59.50
2023-04-16T15:40:50.187Z,59.80
2023-04-16T15:44:32.096Z,60.30
2023-04-16T15:48:14.315Z,60.40
2023-04-16T15:51:56.435Z,60.50
2023-04-16T15:55:38.221Z,60.60
2023-04-16T15:59:19.945Z,60.60
2023-04-16T16:03:02.816Z,60.60
2023-04-16T16:06:44.864Z,60.50
2023-04-16T16:10:26.616Z,60.50
2023-04-16T16:14:08.367Z,60.40
2023-04-16T16:17:50.349Z,60.40
2023-04-16T16:21:33.226Z,60.30
2023-04-16T16:25:15.141Z,60.20
2023-04-16T16:28:59.787Z,60.30
2023-04-16T16:32:43.733Z,60.30
2023-04-16T16:36:26.168Z,60.30
2023-04-16T16:40:08.775Z,60.30
2023-04-16T16:43:51.024Z,60.30
2023-04-16T16:47:33.539Z,60.30
2023-04-16T16:51:18.775Z,60.30
2023-04-16T16:55:01.358Z,60.30
2023-04-16T16:58:43.129Z,60.30
2023-04-16T17:02:24.932Z,60.40
2023-04-16T17:06:06.805Z,60.40
2023-04-16T17:09:48.580Z,60.40
2023-04-16T17:13:32.660Z,60.40
2023-04-16T17:17:14.523Z,60.40
2023-04-16T17:20:56.364Z,60.50
2023-04-16T17:24:38.076Z,60.60
2023-04-16T17:28:20.911Z,60.60
2023-04-16T17:32:02.794Z,60.60
2023-04-16T17:35:44.583Z,60.50
2023-04-16T17:39:26.346Z,60.50
2023-04-16T17:43:08.079Z,60.60
2023-04-16T17:46:49.812Z,60.50
2023-04-16T17:50:31.591Z,60.50
2023-04-16T17:54:13.355Z,60.60
2023-04-16T17:57:55.297Z,60.60
2023-04-16T18:01:37.153Z,60.70
2023-04-16T18:05:21.985Z,60.70
2023-04-16T18:09:05.829Z,60.80
2023-04-16T18:12:47.731Z,60.90
2023-04-16T18:16:29.493Z,61.00
2023-04-16T18:20:12.687Z,61.00
2023-04-16T18:23:54.502Z,61.10
2023-04-16T18:27:36.244Z,61.30
2023-04-16T18:31:20.842Z,61.40
2023-04-16T18:35:03.173Z,61.40
2023-04-16T18:38:59.441Z,61.40
2023-04-16T18:42:42.435Z,61.40
2023-04-16T18:46:25.216Z,61.50
2023-04-16T18:50:08.439Z,61.60
2023-04-16T18:53:50.700Z,61.70
2023-04-16T18:57:32.514Z,61.70
2023-04-16T19:01:14.316Z,61.80
2023-04-16T19:04:56.418Z,61.80
2023-04-16T19:08:38.151Z,61.90
2023-04-16T19:12:19.870Z,62.00
2023-04-16T19:16:02.289Z,62.10
2023-04-16T19:19:44.251Z,62.10
2023-04-16T19:23:26.349Z,62.20
2023-04-16T19:27:08.072Z,62.20
2023-04-16T19:30:53.594Z,62.20
2023-04-16T19:34:35.348Z,62.20
2023-04-16T19:38:17.116Z,62.10
2023-04-16T19:41:58.918Z,62.10
2023-04-16T19:45:44.950Z,62.10
2023-04-16T19:49:26.775Z,62.10
2023-04-16T19:53:09.403Z,62.10
2023-04-16T19:56:51.796Z,62.10
2023-04-16T20:00:37.907Z,62.10
2023-04-16T20:04:19.809Z,62.10
2023-04-16T20:08:01.605Z,62.10
2023-04-16T20:11:43.338Z,62.00
2023-04-16T20:15:25.287Z,62.10
2023-04-16T20:19:08.940Z,62.10
2023-04-16T20:22:51.274Z,62.00
2023-04-16T20:26:34.097Z,62.00
2023-04-16T20:30:16.412Z,62.10
2023-04-16T20:33:58.149Z,62.20
2023-04-16T20:37:42.203Z,62.10
2023-04-16T20:41:25.214Z,62.20
2023-04-16T20:45:08.702Z,62.20
2023-04-16T20:48:51.603Z,62.30
2023-04-16T20:52:33.348Z,62.40
2023-04-16T20:56:15.124Z,62.50
2023-04-16T20:59:56.989Z,62.50
2023-04-16T21:03:38.885Z,62.60
2023-04-16T21:07:20.900Z,62.60
2023-04-16T21:11:02.643Z,62.70
2023-04-16T21:14:44.389Z,62.80
2023-04-16T21:18:26.144Z,62.80
2023-04-16T21:22:07.951Z,62.80
2023-04-16T21:25:50.068Z,62.80
2023-04-16T21:29:32.450Z,62.90
2023-04-16T21:33:16.059Z,62.80
2023-04-16T21:36:57.856Z,62.90
2023-04-16T21:40:39.590Z,62.90
2023-04-16T21:44:21.324Z,62.90
2023-04-16T21:48:03.126Z,62.80
2023-04-16T21:51:46.133Z,62.90
2023-04-16T21:55:27.850Z,62.90
2023-04-16T21:59:09.686Z,62.90
2023-04-16T22:02:56.104Z,63.00
2023-04-16T22:06:38.141Z,63.00
2023-04-16T22:10:20.090Z,63.10
2023-04-16T22:14:03.024Z,63.10
2023-04-16T22:17:45.513Z,63.40
2023-04-16T22:21:27.794Z,63.40
2023-04-16T22:25:10.353Z,63.30
2023-04-16T22:28:52.212Z,63.40
2023-04-16T22:32:34.337Z,63.50
2023-04-16T22:36:16.324Z,63.80
2023-04-16T22:39:58.485Z,63.60
2023-04-16T22:43:40.688Z,63.70
2023-04-16T22:47:23.190Z,63.80
2023-04-16T22:51:09.146Z,63.80
2023-04-16T22:54:51.056Z,63.90
2023-04-16T22:58:33.109Z,63.90
2023-04-16T23:02:15.111Z,63.90
2023-04-16T23:05:56.898Z,63.80
2023-04-16T23:09:38.731Z,63.80
2023-04-16T23:13:20.686Z,63.90
2023-04-16T23:17:02.955Z,63.80
2023-04-16T23:20:45.107Z,63.80
2023-04-16T23:24:26.808Z,63.80
2023-04-16T23:28:08.517Z,63.80
2023-04-16T23:31:50.604Z,63.90
2023-04-16T23:35:32.613Z,63.90
2023-04-16T23:39:14.380Z,63.80
2023-04-16T23:42:56.243Z,63.90
2023-04-16T23:46:40.575Z,63.90
2023-04-16T23:50:22.637Z,64.00
2023-04-16T23:54:04.541Z,64.00
2023-04-16T23:57:46.751Z,64.00
